WetterOnline ( https://www.wetteronline.de )

Wetter aktuell Donau-Ries

Aktuelles Wetter: Harburg (503m)

6-stündlich | Neueste Meldungen
Ortszeit Temperatur Wetter
Mo, 03.10. 20:00 9.6° C wolkig
Mo, 03.10. 14:00 12.5° C wolkig
Mo, 03.10. 8:00 8.5° C wolkig
Mo, 03.10. 2:00 9.8° C bedeckt
So, 02.10. 20:00 11.0° C leichter Regen
So, 02.10. 14:00 11.9° C Regen
So, 02.10. 8:00 10.9° C leichter Regen
So, 02.10. 2:00 11.2° C leichter Regen
Ortszeit Temperatur Wetter
Mo, 03.10. 22:30 8.3° C leicht bewölkt
Mo, 03.10. 22:20 8.3° C leicht bewölkt
Mo, 03.10. 22:10 9.1° C fast wolkenlos
Mo, 03.10. 22:00 8.9° C fast wolkenlos
Mo, 03.10. 21:50 8.9° C fast wolkenlos
Mo, 03.10. 21:40 8.4° C leicht bewölkt
Mo, 03.10. 21:30 8.9° C wolkig
Mo, 03.10. 21:00 8.7° C wolkig
Mo, 03.10. 20:30 9.3° C wolkig
Mo, 03.10. 20:00 9.6° C wolkig
Mo, 03.10. 19:30 10.1° C leicht bewölkt
Ortszeit Relative Feuchte Sichtweite
Mo, 03.10. 20:00 85% 50 km
Mo, 03.10. 14:00 73% 35 km
Mo, 03.10. 8:00 100% 6 km
Mo, 03.10. 2:00 98% 14 km
So, 02.10. 20:00 99% 18 km
So, 02.10. 14:00 97% 50 km
So, 02.10. 8:00 97% 30 km
So, 02.10. 2:00 93% 18 km
Ortszeit Relative Feuchte Sichtweite
Mo, 03.10. 22:30 90% 45 km
Mo, 03.10. 22:20 90% -
Mo, 03.10. 22:10 85% -
Mo, 03.10. 22:00 88% 45 km
Mo, 03.10. 21:50 88% -
Mo, 03.10. 21:40 93% -
Mo, 03.10. 21:30 87% 50 km
Mo, 03.10. 21:00 90% 45 km
Mo, 03.10. 20:30 84% 55 km
Mo, 03.10. 20:00 85% 50 km
Mo, 03.10. 19:30 82% 55 km
Ortszeit Niederschlagsmenge Niederschlagsart
Mo, 03.10. 20:00 0.1 l/m2 in 12 Std. -
Mo, 03.10. 14:00 0.1 l/m2 in 6 Std. -
Mo, 03.10. 8:00 3 l/m2 in 12 Std. -
Mo, 03.10. 2:00 3 l/m2 in 6 Std. Regen
So, 02.10. 20:00 12 l/m2 in 12 Std. Regen
So, 02.10. 14:00 4 l/m2 in 6 Std. Regen
So, 02.10. 8:00 5 l/m2 in 12 Std. Regen
So, 02.10. 2:00 0.2 l/m2 in 6 Std. Regen
Ortszeit Niederschlagsmenge Niederschlagsart
Mo, 03.10. 22:30 0.0 l/m2 in 1 Std. -
Mo, 03.10. 22:20 keine Meldung -
Mo, 03.10. 22:10 keine Meldung -
Mo, 03.10. 22:00 0.0 l/m2 in 1 Std. -
Mo, 03.10. 21:50 keine Meldung -
Mo, 03.10. 21:40 keine Meldung -
Mo, 03.10. 21:30 0.0 l/m2 in 1 Std. -
Mo, 03.10. 21:00 0.0 l/m2 in 1 Std. -
Mo, 03.10. 20:30 0.0 l/m2 in 1 Std. -
Mo, 03.10. 20:00 0.0 l/m2 in 1 Std. -
Mo, 03.10. 19:30 0.0 l/m2 in 1 Std. -
Ortszeit Stärke Spitze Richtung
km/h Bft. km/h Grad Sektor
Mo, 03.10. 20:00 6 1 22 320° NW
Mo, 03.10. 14:00 9 2 24 310° NW
Mo, 03.10. 8:00 11 2 22 310° NW
Mo, 03.10. 2:00 11 2 25 300° NW
So, 02.10. 20:00 14 3 25 310° NW
So, 02.10. 14:00 6 1 26 340° N
So, 02.10. 8:00 11 2 32 240° SW
So, 02.10. 2:00 11 2 36 260° W
Ortszeit Stärke Spitze Richtung
km/h Bft. km/h Grad Sektor
Mo, 03.10. 22:30 6 1 7 300° NW
Mo, 03.10. 22:20 6 1 - 300° NW
Mo, 03.10. 22:10 6 1 - 280° W
Mo, 03.10. 22:00 6 1 9 310° NW
Mo, 03.10. 21:50 6 1 - 310° NW
Mo, 03.10. 21:40 4 1 - 290° W
Mo, 03.10. 21:30 4 1 11 300° NW
Mo, 03.10. 21:00 6 1 9 260° W
Mo, 03.10. 20:30 7 2 11 350° N
Mo, 03.10. 20:00 6 1 13 320° NW
Mo, 03.10. 19:30 6 1 13 340° N
Ortszeit Untergrenze Bedeckung Gattung
total tief tief mittel hoch
Mo, 03.10. 20:00 8700 m 7/8 0/8 - - -
Mo, 03.10. 14:00 570 m 5/8 5/8 - - -
Mo, 03.10. 8:00 90 m 6/8 6/8 - - -
Mo, 03.10. 2:00 150 m 8/8 8/8 - - -
So, 02.10. 20:00 1500 m 7/8 7/8 - - -
So, 02.10. 14:00 90 m 8/8 8/8 - - -
So, 02.10. 8:00 420 m 8/8 8/8 - - -
So, 02.10. 2:00 600 m 7/8 7/8 - - -
Ortszeit Bedeckungsgrad in Achtel und Wolkenuntergrenze
Mo, 03.10. 22:30 3(8400m)
Mo, 03.10. 22:20 3(8400m)
Mo, 03.10. 22:10 1
Mo, 03.10. 22:00 1(8400m)
Mo, 03.10. 21:50 1(8400m)
Mo, 03.10. 21:40 2
Mo, 03.10. 21:30 7(8700m)
Mo, 03.10. 21:00 8(8100m) 8(8700m) 8(9000m)
Mo, 03.10. 20:30 7(8100m) 8(9000m) 8(9000m)
Mo, 03.10. 20:00 5(8700m) 7(9000m)
Mo, 03.10. 19:30 3(8400m) 6(9000m)
Ortszeit Luftdruck NN (hPa) Tendenz (hPa in 3 Std.)
Mo, 03.10. 20:00 1027 - 0,2
Mo, 03.10. 14:00 1028 + 0,1
Mo, 03.10. 8:00 1027 + 0,8
Mo, 03.10. 2:00 1025 + 1,6
So, 02.10. 20:00 1021 + 1,6
So, 02.10. 14:00 1019 - 0,7
So, 02.10. 8:00 1021 + 0,2
So, 02.10. 2:00 1020 + 2,1
Ortszeit Luftdruck NN (hPa) Tendenz (hPa in 3 Std.)
Mo, 03.10. 22:30 1027 - 0,1
Mo, 03.10. 22:20 1027 keine Meldung
Mo, 03.10. 22:10 1027 keine Meldung
Mo, 03.10. 22:00 1027 0,0
Mo, 03.10. 21:50 1027 keine Meldung
Mo, 03.10. 21:40 1027 keine Meldung
Mo, 03.10. 21:30 1027 - 0,3
Mo, 03.10. 21:00 1027 0,0
Mo, 03.10. 20:30 1027 0,0
Mo, 03.10. 20:00 1027 - 0,2
Mo, 03.10. 19:30 1027 - 0,2
Ortszeit Schneehöhe (cm)
Mo, 03.10. 20:00 0
Mo, 03.10. 14:00 0
Mo, 03.10. 8:00 0
Mo, 03.10. 2:00 0
So, 02.10. 20:00 0
So, 02.10. 14:00 0
So, 02.10. 8:00 0
So, 02.10. 2:00 0
Ortszeit Schneehöhe (cm)
Mo, 03.10. 22:30 0
Mo, 03.10. 22:20 0
Mo, 03.10. 22:10 0
Mo, 03.10. 22:00 0
Mo, 03.10. 21:50 0
Mo, 03.10. 21:40 0
Mo, 03.10. 21:30 0
Mo, 03.10. 21:00 0
Mo, 03.10. 20:30 0
Mo, 03.10. 20:00 0
Mo, 03.10. 19:30 0
Link zu dieser Seite / Seite empfehlen

Das Wetter in ...